sensor_id;sensor_type;location;lat;lon;timestamp;P1;durP1;ratioP1;P2;durP2;ratioP2
20170;SDS011;10245;51.344;6.620;2023-07-31T00:00:29;14.10;;;6.25;;
20170;SDS011;10245;51.344;6.620;2023-07-31T00:03:29;13.98;;;6.05;;
20170;SDS011;10245;51.344;6.620;2023-07-31T00:06:23;15.60;;;6.30;;
20170;SDS011;10245;51.344;6.620;2023-07-31T00:09:21;12.25;;;5.55;;
20170;SDS011;10245;51.344;6.620;2023-07-31T00:15:08;16.80;;;5.93;;
20170;SDS011;10245;51.344;6.620;2023-07-31T00:18:10;13.32;;;5.38;;
20170;SDS011;10245;51.344;6.620;2023-07-31T00:20:57;17.25;;;6.47;;
20170;SDS011;10245;51.344;6.620;2023-07-31T00:23:41;14.60;;;5.90;;
20170;SDS011;10245;51.344;6.620;2023-07-31T00:26:55;16.90;;;6.18;;
20170;SDS011;10245;51.344;6.620;2023-07-31T00:29:26;13.27;;;6.18;;
20170;SDS011;10245;51.344;6.620;2023-07-31T00:32:20;14.30;;;6.07;;
20170;SDS011;10245;51.344;6.620;2023-07-31T00:35:42;15.20;;;5.57;;
20170;SDS011;10245;51.344;6.620;2023-07-31T00:38:42;15.63;;;6.68;;
20170;SDS011;10245;51.344;6.620;2023-07-31T00:41:41;15.93;;;5.85;;
20170;SDS011;10245;51.344;6.620;2023-07-31T00:44:39;13.95;;;5.75;;
20170;SDS011;10245;51.344;6.620;2023-07-31T00:48:05;13.80;;;5.68;;
20170;SDS011;10245;51.344;6.620;2023-07-31T00:54:41;16.23;;;6.03;;
20170;SDS011;10245;51.344;6.620;2023-07-31T00:57:44;12.82;;;5.97;;
20170;SDS011;10245;51.344;6.620;2023-07-31T01:00:24;14.85;;;6.03;;
20170;SDS011;10245;51.344;6.620;2023-07-31T01:03:11;16.73;;;5.63;;
20170;SDS011;10245;51.344;6.620;2023-07-31T01:06:08;14.45;;;5.78;;
20170;SDS011;10245;51.344;6.620;2023-07-31T01:15:48;15.60;;;5.68;;
20170;SDS011;10245;51.344;6.620;2023-07-31T01:18:59;12.35;;;5.40;;
20170;SDS011;10245;51.344;6.620;2023-07-31T01:22:06;14.95;;;5.57;;
20170;SDS011;10245;51.344;6.620;2023-07-31T01:29:15;15.52;;;5.50;;
20170;SDS011;10245;51.344;6.620;2023-07-31T01:32:10;14.20;;;5.50;;
20170;SDS011;10245;51.344;6.620;2023-07-31T01:35:33;12.20;;;5.43;;
20170;SDS011;10245;51.344;6.620;2023-07-31T01:38:42;13.60;;;5.50;;
20170;SDS011;10245;51.344;6.620;2023-07-31T01:41:52;11.75;;;5.85;;
20170;SDS011;10245;51.344;6.620;2023-07-31T01:44:46;13.93;;;5.65;;
20170;SDS011;10245;51.344;6.620;2023-07-31T01:48:30;10.45;;;5.53;;
20170;SDS011;10245;51.344;6.620;2023-07-31T01:51:19;12.52;;;5.00;;
20170;SDS011;10245;51.344;6.620;2023-07-31T01:54:08;17.27;;;5.80;;
20170;SDS011;10245;51.344;6.620;2023-07-31T01:56:56;16.02;;;5.40;;
20170;SDS011;10245;51.344;6.620;2023-07-31T02:00:11;14.50;;;5.70;;
20170;SDS011;10245;51.344;6.620;2023-07-31T02:03:04;14.60;;;6.28;;
20170;SDS011;10245;51.344;6.620;2023-07-31T02:08:25;13.90;;;5.50;;
20170;SDS011;10245;51.344;6.620;2023-07-31T02:11:28;12.07;;;5.35;;
20170;SDS011;10245;51.344;6.620;2023-07-31T02:14:17;15.52;;;5.78;;
20170;SDS011;10245;51.344;6.620;2023-07-31T02:17:14;14.95;;;5.68;;
20170;SDS011;10245;51.344;6.620;2023-07-31T02:20:13;13.18;;;5.85;;
20170;SDS011;10245;51.344;6.620;2023-07-31T02:23:01;11.93;;;5.38;;
20170;SDS011;10245;51.344;6.620;2023-07-31T02:25:49;16.45;;;5.78;;
20170;SDS011;10245;51.344;6.620;2023-07-31T02:28:53;13.85;;;5.72;;
20170;SDS011;10245;51.344;6.620;2023-07-31T02:31:35;13.02;;;6.03;;
20170;SDS011;10245;51.344;6.620;2023-07-31T02:35:24;14.98;;;5.78;;
20170;SDS011;10245;51.344;6.620;2023-07-31T02:38:40;14.07;;;5.75;;
20170;SDS011;10245;51.344;6.620;2023-07-31T02:41:47;15.88;;;5.75;;
20170;SDS011;10245;51.344;6.620;2023-07-31T02:44:31;14.30;;;5.38;;
20170;SDS011;10245;51.344;6.620;2023-07-31T02:50:11;15.40;;;5.95;;
20170;SDS011;10245;51.344;6.620;2023-07-31T02:53:21;16.92;;;5.88;;
20170;SDS011;10245;51.344;6.620;2023-07-31T02:56:07;14.95;;;5.68;;
20170;SDS011;10245;51.344;6.620;2023-07-31T02:59:05;15.02;;;5.65;;
20170;SDS011;10245;51.344;6.620;2023-07-31T03:02:14;10.98;;;5.25;;
20170;SDS011;10245;51.344;6.620;2023-07-31T03:04:56;12.02;;;5.50;;
20170;SDS011;10245;51.344;6.620;2023-07-31T03:07:43;13.80;;;5.70;;
20170;SDS011;10245;51.344;6.620;2023-07-31T03:10:24;12.40;;;5.47;;
20170;SDS011;10245;51.344;6.620;2023-07-31T03:13:32;12.23;;;5.18;;
20170;SDS011;10245;51.344;6.620;2023-07-31T03:16:51;9.32;;;5.63;;
20170;SDS011;10245;51.344;6.620;2023-07-31T03:19:33;13.73;;;5.30;;
20170;SDS011;10245;51.344;6.620;2023-07-31T03:22:16;14.77;;;5.55;;
20170;SDS011;10245;51.344;6.620;2023-07-31T03:25:01;10.63;;;5.60;;
20170;SDS011;10245;51.344;6.620;2023-07-31T03:31:01;10.50;;;4.75;;
20170;SDS011;10245;51.344;6.620;2023-07-31T03:33:58;15.68;;;5.15;;
20170;SDS011;10245;51.344;6.620;2023-07-31T03:36:56;11.95;;;4.70;;
20170;SDS011;10245;51.344;6.620;2023-07-31T03:39:55;16.65;;;5.40;;
20170;SDS011;10245;51.344;6.620;2023-07-31T03:42:56;13.13;;;5.25;;
20170;SDS011;10245;51.344;6.620;2023-07-31T03:45:48;15.70;;;5.40;;
20170;SDS011;10245;51.344;6.620;2023-07-31T03:49:17;12.07;;;5.72;;
20170;SDS011;10245;51.344;6.620;2023-07-31T03:52:18;10.73;;;5.60;;
20170;SDS011;10245;51.344;6.620;2023-07-31T03:55:47;15.40;;;5.70;;
20170;SDS011;10245;51.344;6.620;2023-07-31T03:58:44;14.15;;;5.38;;
20170;SDS011;10245;51.344;6.620;2023-07-31T04:01:55;17.27;;;6.00;;
20170;SDS011;10245;51.344;6.620;2023-07-31T04:05:07;15.63;;;5.72;;
20170;SDS011;10245;51.344;6.620;2023-07-31T04:11:43;13.88;;;5.78;;
20170;SDS011;10245;51.344;6.620;2023-07-31T04:14:52;13.38;;;5.43;;
20170;SDS011;10245;51.344;6.620;2023-07-31T04:18:13;15.45;;;5.60;;
20170;SDS011;10245;51.344;6.620;2023-07-31T04:21:11;12.82;;;5.43;;
20170;SDS011;10245;51.344;6.620;2023-07-31T04:27:14;10.43;;;5.25;;
20170;SDS011;10245;51.344;6.620;2023-07-31T04:30:22;11.82;;;5.80;;
20170;SDS011;10245;51.344;6.620;2023-07-31T04:34:05;10.52;;;5.30;;
20170;SDS011;10245;51.344;6.620;2023-07-31T04:37:10;13.98;;;5.72;;
20170;SDS011;10245;51.344;6.620;2023-07-31T04:43:52;10.43;;;5.28;;
20170;SDS011;10245;51.344;6.620;2023-07-31T04:47:04;9.55;;;5.28;;
20170;SDS011;10245;51.344;6.620;2023-07-31T04:49:34;11.23;;;5.53;;
20170;SDS011;10245;51.344;6.620;2023-07-31T04:52:06;9.55;;;5.65;;
20170;SDS011;10245;51.344;6.620;2023-07-31T04:54:41;13.60;;;6.13;;
20170;SDS011;10245;51.344;6.620;2023-07-31T04:57:14;10.38;;;5.20;;
20170;SDS011;10245;51.344;6.620;2023-07-31T04:59:45;11.18;;;6.25;;
20170;SDS011;10245;51.344;6.620;2023-07-31T05:02:16;13.38;;;6.20;;
20170;SDS011;10245;51.344;6.620;2023-07-31T05:04:53;11.40;;;5.90;;
20170;SDS011;10245;51.344;6.620;2023-07-31T05:07:31;13.55;;;5.60;;
20170;SDS011;10245;51.344;6.620;2023-07-31T05:10:18;12.10;;;5.93;;
20170;SDS011;10245;51.344;6.620;2023-07-31T05:12:56;9.52;;;5.75;;
20170;SDS011;10245;51.344;6.620;2023-07-31T05:15:43;13.15;;;6.00;;
20170;SDS011;10245;51.344;6.620;2023-07-31T05:18:17;10.65;;;5.60;;
20170;SDS011;10245;51.344;6.620;2023-07-31T05:20:56;9.40;;;5.30;;
20170;SDS011;10245;51.344;6.620;2023-07-31T05:23:49;14.25;;;5.80;;
20170;SDS011;10245;51.344;6.620;2023-07-31T05:26:57;13.15;;;6.15;;
20170;SDS011;10245;51.344;6.620;2023-07-31T05:29:44;7.65;;;5.05;;
20170;SDS011;10245;51.344;6.620;2023-07-31T05:32:21;12.07;;;5.57;;
20170;SDS011;10245;51.344;6.620;2023-07-31T05:35:04;13.27;;;5.55;;
20170;SDS011;10245;51.344;6.620;2023-07-31T05:37:40;10.07;;;5.68;;
20170;SDS011;10245;51.344;6.620;2023-07-31T05:40:31;9.93;;;5.63;;
20170;SDS011;10245;51.344;6.620;2023-07-31T05:43:42;11.00;;;5.20;;
20170;SDS011;10245;51.344;6.620;2023-07-31T05:46:12;9.85;;;5.57;;
20170;SDS011;10245;51.344;6.620;2023-07-31T05:48:36;8.77;;;5.57;;
20170;SDS011;10245;51.344;6.620;2023-07-31T05:50:59;10.63;;;5.70;;
20170;SDS011;10245;51.344;6.620;2023-07-31T05:53:22;13.70;;;5.80;;
20170;SDS011;10245;51.344;6.620;2023-07-31T05:55:45;8.40;;;5.25;;
20170;SDS011;10245;51.344;6.620;2023-07-31T05:58:09;8.32;;;4.97;;
20170;SDS011;10245;51.344;6.620;2023-07-31T06:00:33;9.60;;;5.35;;
20170;SDS011;10245;51.344;6.620;2023-07-31T06:02:57;12.13;;;4.75;;
20170;SDS011;10245;51.344;6.620;2023-07-31T06:05:20;10.98;;;5.25;;
20170;SDS011;10245;51.344;6.620;2023-07-31T06:07:43;12.00;;;5.90;;
20170;SDS011;10245;51.344;6.620;2023-07-31T06:10:07;9.80;;;5.40;;
20170;SDS011;10245;51.344;6.620;2023-07-31T06:12:31;12.60;;;5.53;;
20170;SDS011;10245;51.344;6.620;2023-07-31T06:14:54;9.68;;;5.95;;
20170;SDS011;10245;51.344;6.620;2023-07-31T06:17:19;10.23;;;5.60;;
20170;SDS011;10245;51.344;6.620;2023-07-31T06:19:42;9.20;;;6.30;;
20170;SDS011;10245;51.344;6.620;2023-07-31T06:22:07;9.13;;;5.82;;
20170;SDS011;10245;51.344;6.620;2023-07-31T06:24:30;12.55;;;6.15;;
20170;SDS011;10245;51.344;6.620;2023-07-31T06:26:53;9.95;;;5.47;;
20170;SDS011;10245;51.344;6.620;2023-07-31T06:29:18;10.00;;;5.70;;
20170;SDS011;10245;51.344;6.620;2023-07-31T06:31:42;11.77;;;6.25;;
20170;SDS011;10245;51.344;6.620;2023-07-31T06:34:07;13.00;;;6.35;;
20170;SDS011;10245;51.344;6.620;2023-07-31T06:36:30;10.00;;;5.85;;
20170;SDS011;10245;51.344;6.620;2023-07-31T06:38:53;10.20;;;5.70;;
20170;SDS011;10245;51.344;6.620;2023-07-31T06:41:16;10.77;;;5.40;;
20170;SDS011;10245;51.344;6.620;2023-07-31T06:43:41;9.52;;;6.05;;
20170;SDS011;10245;51.344;6.620;2023-07-31T06:46:04;11.48;;;5.47;;
20170;SDS011;10245;51.344;6.620;2023-07-31T06:48:28;8.98;;;5.35;;
20170;SDS011;10245;51.344;6.620;2023-07-31T06:50:53;11.32;;;5.57;;
20170;SDS011;10245;51.344;6.620;2023-07-31T06:53:16;9.70;;;5.75;;
20170;SDS011;10245;51.344;6.620;2023-07-31T06:55:40;8.85;;;5.05;;
20170;SDS011;10245;51.344;6.620;2023-07-31T06:58:03;9.48;;;5.60;;
20170;SDS011;10245;51.344;6.620;2023-07-31T07:00:26;10.82;;;5.75;;
20170;SDS011;10245;51.344;6.620;2023-07-31T07:02:50;10.95;;;6.13;;
20170;SDS011;10245;51.344;6.620;2023-07-31T07:05:14;12.88;;;6.60;;
20170;SDS011;10245;51.344;6.620;2023-07-31T07:07:39;10.38;;;6.25;;
20170;SDS011;10245;51.344;6.620;2023-07-31T07:10:03;12.93;;;6.00;;
20170;SDS011;10245;51.344;6.620;2023-07-31T07:12:28;12.35;;;6.35;;
20170;SDS011;10245;51.344;6.620;2023-07-31T07:14:54;10.70;;;6.15;;
20170;SDS011;10245;51.344;6.620;2023-07-31T07:17:17;11.90;;;6.10;;
20170;SDS011;10245;51.344;6.620;2023-07-31T07:19:40;13.73;;;6.85;;
20170;SDS011;10245;51.344;6.620;2023-07-31T07:22:04;13.40;;;7.15;;
20170;SDS011;10245;51.344;6.620;2023-07-31T07:24:29;11.38;;;6.32;;
20170;SDS011;10245;51.344;6.620;2023-07-31T07:26:52;11.30;;;6.28;;
20170;SDS011;10245;51.344;6.620;2023-07-31T07:29:16;10.15;;;6.28;;
20170;SDS011;10245;51.344;6.620;2023-07-31T07:31:39;14.07;;;6.10;;
20170;SDS011;10245;51.344;6.620;2023-07-31T07:34:02;11.65;;;6.38;;
20170;SDS011;10245;51.344;6.620;2023-07-31T07:36:27;13.45;;;6.05;;
20170;SDS011;10245;51.344;6.620;2023-07-31T07:38:50;11.82;;;5.63;;
20170;SDS011;10245;51.344;6.620;2023-07-31T07:41:14;9.93;;;5.45;;
20170;SDS011;10245;51.344;6.620;2023-07-31T07:43:38;11.55;;;5.72;;
20170;SDS011;10245;51.344;6.620;2023-07-31T07:46:01;9.25;;;5.80;;
20170;SDS011;10245;51.344;6.620;2023-07-31T07:48:25;7.93;;;5.03;;
20170;SDS011;10245;51.344;6.620;2023-07-31T07:50:48;9.27;;;5.20;;
20170;SDS011;10245;51.344;6.620;2023-07-31T07:53:12;11.52;;;5.20;;
20170;SDS011;10245;51.344;6.620;2023-07-31T07:55:35;12.10;;;5.22;;
20170;SDS011;10245;51.344;6.620;2023-07-31T07:58:00;9.95;;;5.00;;
20170;SDS011;10245;51.344;6.620;2023-07-31T08:00:23;6.03;;;4.20;;
20170;SDS011;10245;51.344;6.620;2023-07-31T08:02:47;11.55;;;4.60;;
20170;SDS011;10245;51.344;6.620;2023-07-31T08:05:10;9.23;;;5.13;;
20170;SDS011;10245;51.344;6.620;2023-07-31T08:07:33;7.13;;;4.60;;
20170;SDS011;10245;51.344;6.620;2023-07-31T08:09:56;6.97;;;3.90;;
20170;SDS011;10245;51.344;6.620;2023-07-31T08:12:20;7.35;;;4.15;;
20170;SDS011;10245;51.344;6.620;2023-07-31T08:14:44;6.97;;;4.07;;
20170;SDS011;10245;51.344;6.620;2023-07-31T08:17:08;8.57;;;4.10;;
20170;SDS011;10245;51.344;6.620;2023-07-31T08:19:31;9.07;;;4.60;;
20170;SDS011;10245;51.344;6.620;2023-07-31T08:21:55;6.95;;;4.68;;
20170;SDS011;10245;51.344;6.620;2023-07-31T08:24:19;8.52;;;4.72;;
20170;SDS011;10245;51.344;6.620;2023-07-31T08:26:42;6.60;;;4.10;;
20170;SDS011;10245;51.344;6.620;2023-07-31T08:29:05;6.50;;;4.60;;
20170;SDS011;10245;51.344;6.620;2023-07-31T08:31:30;7.80;;;4.20;;
20170;SDS011;10245;51.344;6.620;2023-07-31T08:33:53;8.18;;;4.18;;
20170;SDS011;10245;51.344;6.620;2023-07-31T08:36:16;9.00;;;4.00;;
20170;SDS011;10245;51.344;6.620;2023-07-31T08:38:39;7.72;;;3.97;;
20170;SDS011;10245;51.344;6.620;2023-07-31T08:41:03;8.48;;;4.55;;
20170;SDS011;10245;51.344;6.620;2023-07-31T08:43:26;10.43;;;4.50;;
20170;SDS011;10245;51.344;6.620;2023-07-31T08:45:50;8.32;;;4.10;;
20170;SDS011;10245;51.344;6.620;2023-07-31T08:48:15;4.32;;;3.47;;
20170;SDS011;10245;51.344;6.620;2023-07-31T08:50:40;6.93;;;3.90;;
20170;SDS011;10245;51.344;6.620;2023-07-31T08:53:03;6.72;;;4.25;;
20170;SDS011;10245;51.344;6.620;2023-07-31T08:55:27;9.18;;;4.10;;
20170;SDS011;10245;51.344;6.620;2023-07-31T08:57:52;10.93;;;4.45;;
20170;SDS011;10245;51.344;6.620;2023-07-31T09:00:15;9.25;;;4.30;;
20170;SDS011;10245;51.344;6.620;2023-07-31T09:02:41;6.28;;;4.22;;
20170;SDS011;10245;51.344;6.620;2023-07-31T09:05:11;7.03;;;4.05;;
20170;SDS011;10245;51.344;6.620;2023-07-31T09:07:35;6.13;;;4.32;;
20170;SDS011;10245;51.344;6.620;2023-07-31T09:09:58;8.63;;;4.78;;
20170;SDS011;10245;51.344;6.620;2023-07-31T09:12:21;6.10;;;4.20;;
20170;SDS011;10245;51.344;6.620;2023-07-31T09:14:45;10.23;;;4.75;;
20170;SDS011;10245;51.344;6.620;2023-07-31T09:17:08;7.22;;;4.93;;
20170;SDS011;10245;51.344;6.620;2023-07-31T09:19:32;7.60;;;4.88;;
20170;SDS011;10245;51.344;6.620;2023-07-31T09:22:00;7.80;;;3.97;;
20170;SDS011;10245;51.344;6.620;2023-07-31T09:24:27;8.10;;;4.65;;
20170;SDS011;10245;51.344;6.620;2023-07-31T09:26:52;7.82;;;4.15;;
20170;SDS011;10245;51.344;6.620;2023-07-31T09:29:18;8.88;;;4.80;;
20170;SDS011;10245;51.344;6.620;2023-07-31T09:31:42;8.20;;;4.28;;
20170;SDS011;10245;51.344;6.620;2023-07-31T09:34:06;6.47;;;4.60;;
20170;SDS011;10245;51.344;6.620;2023-07-31T09:36:30;7.85;;;5.22;;
20170;SDS011;10245;51.344;6.620;2023-07-31T09:38:54;6.22;;;4.38;;
20170;SDS011;10245;51.344;6.620;2023-07-31T09:41:18;6.45;;;4.15;;
20170;SDS011;10245;51.344;6.620;2023-07-31T09:43:42;6.90;;;4.10;;
20170;SDS011;10245;51.344;6.620;2023-07-31T09:46:16;5.28;;;4.15;;
20170;SDS011;10245;51.344;6.620;2023-07-31T09:48:43;7.30;;;4.30;;
20170;SDS011;10245;51.344;6.620;2023-07-31T09:51:06;7.43;;;4.40;;
20170;SDS011;10245;51.344;6.620;2023-07-31T09:53:30;8.82;;;4.45;;
20170;SDS011;10245;51.344;6.620;2023-07-31T09:55:54;8.32;;;4.82;;
20170;SDS011;10245;51.344;6.620;2023-07-31T09:58:21;7.05;;;4.25;;
20170;SDS011;10245;51.344;6.620;2023-07-31T10:00:45;6.63;;;4.35;;
20170;SDS011;10245;51.344;6.620;2023-07-31T10:03:09;6.03;;;4.65;;
20170;SDS011;10245;51.344;6.620;2023-07-31T10:05:34;7.18;;;4.10;;
20170;SDS011;10245;51.344;6.620;2023-07-31T10:07:58;6.97;;;4.68;;
20170;SDS011;10245;51.344;6.620;2023-07-31T10:10:22;9.00;;;4.00;;
20170;SDS011;10245;51.344;6.620;2023-07-31T10:12:47;6.78;;;4.35;;
20170;SDS011;10245;51.344;6.620;2023-07-31T10:15:11;7.13;;;4.18;;
20170;SDS011;10245;51.344;6.620;2023-07-31T10:17:37;5.82;;;3.97;;
20170;SDS011;10245;51.344;6.620;2023-07-31T10:20:01;5.85;;;4.18;;
20170;SDS011;10245;51.344;6.620;2023-07-31T10:22:26;6.28;;;4.00;;
20170;SDS011;10245;51.344;6.620;2023-07-31T10:24:50;5.80;;;4.00;;
20170;SDS011;10245;51.344;6.620;2023-07-31T10:27:15;5.53;;;4.05;;
20170;SDS011;10245;51.344;6.620;2023-07-31T10:29:39;9.75;;;4.50;;
20170;SDS011;10245;51.344;6.620;2023-07-31T10:32:06;7.38;;;4.10;;
20170;SDS011;10245;51.344;6.620;2023-07-31T10:34:31;7.97;;;4.32;;
20170;SDS011;10245;51.344;6.620;2023-07-31T10:39:54;6.72;;;4.13;;
20170;SDS011;10245;51.344;6.620;2023-07-31T10:42:20;7.13;;;4.22;;
20170;SDS011;10245;51.344;6.620;2023-07-31T10:44:53;8.75;;;4.30;;
20170;SDS011;10245;51.344;6.620;2023-07-31T10:47:20;8.80;;;4.00;;
20170;SDS011;10245;51.344;6.620;2023-07-31T10:49:44;6.10;;;4.05;;
20170;SDS011;10245;51.344;6.620;2023-07-31T10:52:10;8.05;;;3.80;;
20170;SDS011;10245;51.344;6.620;2023-07-31T10:54:35;7.45;;;3.55;;
20170;SDS011;10245;51.344;6.620;2023-07-31T10:56:58;7.70;;;3.80;;
20170;SDS011;10245;51.344;6.620;2023-07-31T10:59:25;6.15;;;3.97;;
20170;SDS011;10245;51.344;6.620;2023-07-31T11:01:52;5.47;;;3.40;;
20170;SDS011;10245;51.344;6.620;2023-07-31T11:04:21;5.78;;;3.40;;
20170;SDS011;10245;51.344;6.620;2023-07-31T11:06:53;8.55;;;4.40;;
20170;SDS011;10245;51.344;6.620;2023-07-31T11:09:19;9.27;;;3.92;;
20170;SDS011;10245;51.344;6.620;2023-07-31T11:11:42;7.30;;;4.03;;
20170;SDS011;10245;51.344;6.620;2023-07-31T11:14:07;5.20;;;3.47;;
20170;SDS011;10245;51.344;6.620;2023-07-31T11:16:33;7.47;;;3.38;;
20170;SDS011;10245;51.344;6.620;2023-07-31T11:18:58;8.00;;;3.78;;
20170;SDS011;10245;51.344;6.620;2023-07-31T11:21:22;7.45;;;3.58;;
20170;SDS011;10245;51.344;6.620;2023-07-31T11:23:47;7.13;;;3.50;;
20170;SDS011;10245;51.344;6.620;2023-07-31T11:26:11;7.13;;;3.80;;
20170;SDS011;10245;51.344;6.620;2023-07-31T11:28:35;4.45;;;3.33;;
20170;SDS011;10245;51.344;6.620;2023-07-31T11:31:00;4.45;;;3.35;;
20170;SDS011;10245;51.344;6.620;2023-07-31T11:33:24;5.95;;;3.40;;
20170;SDS011;10245;51.344;6.620;2023-07-31T11:35:49;4.90;;;3.15;;
20170;SDS011;10245;51.344;6.620;2023-07-31T11:38:12;5.45;;;3.58;;
20170;SDS011;10245;51.344;6.620;2023-07-31T11:40:44;7.15;;;3.50;;
20170;SDS011;10245;51.344;6.620;2023-07-31T11:43:07;6.22;;;3.20;;
20170;SDS011;10245;51.344;6.620;2023-07-31T11:45:32;5.65;;;3.28;;
20170;SDS011;10245;51.344;6.620;2023-07-31T11:47:56;5.10;;;3.10;;
20170;SDS011;10245;51.344;6.620;2023-07-31T11:50:20;6.28;;;2.95;;
20170;SDS011;10245;51.344;6.620;2023-07-31T11:52:45;6.78;;;3.25;;
20170;SDS011;10245;51.344;6.620;2023-07-31T11:55:10;4.55;;;3.10;;
20170;SDS011;10245;51.344;6.620;2023-07-31T11:57:37;5.28;;;3.28;;
20170;SDS011;10245;51.344;6.620;2023-07-31T12:00:02;5.18;;;3.15;;
20170;SDS011;10245;51.344;6.620;2023-07-31T12:02:27;5.40;;;3.28;;
20170;SDS011;10245;51.344;6.620;2023-07-31T12:04:50;4.22;;;2.60;;
20170;SDS011;10245;51.344;6.620;2023-07-31T12:07:13;4.50;;;2.80;;
20170;SDS011;10245;51.344;6.620;2023-07-31T12:09:38;4.57;;;2.97;;
20170;SDS011;10245;51.344;6.620;2023-07-31T12:12:01;3.33;;;2.72;;
20170;SDS011;10245;51.344;6.620;2023-07-31T12:14:30;4.80;;;2.80;;
20170;SDS011;10245;51.344;6.620;2023-07-31T12:16:54;4.35;;;2.70;;
20170;SDS011;10245;51.344;6.620;2023-07-31T12:19:18;7.28;;;3.00;;
20170;SDS011;10245;51.344;6.620;2023-07-31T12:21:41;4.35;;;2.50;;
20170;SDS011;10245;51.344;6.620;2023-07-31T12:24:05;4.57;;;2.80;;
20170;SDS011;10245;51.344;6.620;2023-07-31T12:26:34;4.15;;;2.15;;
20170;SDS011;10245;51.344;6.620;2023-07-31T12:28:57;3.97;;;2.85;;
20170;SDS011;10245;51.344;6.620;2023-07-31T12:31:21;6.53;;;2.80;;
20170;SDS011;10245;51.344;6.620;2023-07-31T12:33:46;4.50;;;3.03;;
20170;SDS011;10245;51.344;6.620;2023-07-31T12:36:11;3.85;;;2.90;;
20170;SDS011;10245;51.344;6.620;2023-07-31T12:38:36;3.28;;;2.83;;
20170;SDS011;10245;51.344;6.620;2023-07-31T12:40:59;4.07;;;2.60;;
20170;SDS011;10245;51.344;6.620;2023-07-31T12:43:24;3.72;;;2.60;;
20170;SDS011;10245;51.344;6.620;2023-07-31T12:45:47;3.55;;;2.53;;
20170;SDS011;10245;51.344;6.620;2023-07-31T12:48:10;3.30;;;2.50;;
20170;SDS011;10245;51.344;6.620;2023-07-31T12:50:33;3.85;;;2.83;;
20170;SDS011;10245;51.344;6.620;2023-07-31T12:52:57;5.75;;;2.55;;
20170;SDS011;10245;51.344;6.620;2023-07-31T12:55:24;3.35;;;2.80;;
20170;SDS011;10245;51.344;6.620;2023-07-31T12:57:47;4.15;;;3.00;;
20170;SDS011;10245;51.344;6.620;2023-07-31T13:00:13;3.55;;;2.92;;
20170;SDS011;10245;51.344;6.620;2023-07-31T13:02:37;3.95;;;3.10;;
20170;SDS011;10245;51.344;6.620;2023-07-31T13:05:00;4.03;;;3.22;;
20170;SDS011;10245;51.344;6.620;2023-07-31T13:07:23;4.35;;;3.00;;
20170;SDS011;10245;51.344;6.620;2023-07-31T13:09:47;4.50;;;3.05;;
20170;SDS011;10245;51.344;6.620;2023-07-31T13:12:11;5.18;;;3.22;;
20170;SDS011;10245;51.344;6.620;2023-07-31T13:14:34;4.97;;;3.28;;
20170;SDS011;10245;51.344;6.620;2023-07-31T13:16:59;5.43;;;3.40;;
20170;SDS011;10245;51.344;6.620;2023-07-31T13:19:21;5.30;;;3.58;;
20170;SDS011;10245;51.344;6.620;2023-07-31T13:21:44;4.85;;;3.53;;
20170;SDS011;10245;51.344;6.620;2023-07-31T13:24:07;6.75;;;4.13;;
20170;SDS011;10245;51.344;6.620;2023-07-31T13:26:31;6.85;;;3.70;;
20170;SDS011;10245;51.344;6.620;2023-07-31T13:28:55;6.55;;;3.47;;
20170;SDS011;10245;51.344;6.620;2023-07-31T13:31:18;6.28;;;3.95;;
20170;SDS011;10245;51.344;6.620;2023-07-31T13:33:43;5.82;;;3.78;;
20170;SDS011;10245;51.344;6.620;2023-07-31T13:36:06;10.50;;;4.32;;
20170;SDS011;10245;51.344;6.620;2023-07-31T13:38:29;5.63;;;4.13;;
20170;SDS011;10245;51.344;6.620;2023-07-31T13:40:52;9.30;;;4.10;;
20170;SDS011;10245;51.344;6.620;2023-07-31T13:43:18;5.47;;;4.30;;
20170;SDS011;10245;51.344;6.620;2023-07-31T13:45:41;6.70;;;4.45;;
20170;SDS011;10245;51.344;6.620;2023-07-31T13:48:04;6.40;;;3.92;;
20170;SDS011;10245;51.344;6.620;2023-07-31T13:50:29;6.90;;;4.43;;
20170;SDS011;10245;51.344;6.620;2023-07-31T13:52:52;7.47;;;4.30;;
20170;SDS011;10245;51.344;6.620;2023-07-31T13:55:16;6.10;;;3.92;;
20170;SDS011;10245;51.344;6.620;2023-07-31T13:57:39;6.57;;;4.32;;
20170;SDS011;10245;51.344;6.620;2023-07-31T14:00:03;6.85;;;4.13;;
20170;SDS011;10245;51.344;6.620;2023-07-31T14:02:27;9.38;;;4.35;;
20170;SDS011;10245;51.344;6.620;2023-07-31T14:04:51;6.82;;;3.97;;
20170;SDS011;10245;51.344;6.620;2023-07-31T14:07:15;5.60;;;4.22;;
20170;SDS011;10245;51.344;6.620;2023-07-31T14:09:39;5.70;;;3.92;;
20170;SDS011;10245;51.344;6.620;2023-07-31T14:12:02;5.90;;;4.45;;
20170;SDS011;10245;51.344;6.620;2023-07-31T14:14:27;6.65;;;4.35;;
20170;SDS011;10245;51.344;6.620;2023-07-31T14:16:50;8.07;;;4.25;;
20170;SDS011;10245;51.344;6.620;2023-07-31T14:19:14;7.32;;;3.95;;
20170;SDS011;10245;51.344;6.620;2023-07-31T14:21:37;8.63;;;3.80;;
20170;SDS011;10245;51.344;6.620;2023-07-31T14:24:02;5.50;;;4.03;;
20170;SDS011;10245;51.344;6.620;2023-07-31T14:26:26;6.30;;;3.97;;
20170;SDS011;10245;51.344;6.620;2023-07-31T14:28:49;4.78;;;3.63;;
20170;SDS011;10245;51.344;6.620;2023-07-31T14:31:12;6.03;;;4.07;;
20170;SDS011;10245;51.344;6.620;2023-07-31T14:33:36;9.10;;;4.97;;
20170;SDS011;10245;51.344;6.620;2023-07-31T14:35:59;6.88;;;4.07;;
20170;SDS011;10245;51.344;6.620;2023-07-31T14:38:23;7.30;;;4.65;;
20170;SDS011;10245;51.344;6.620;2023-07-31T14:40:47;7.22;;;3.72;;
20170;SDS011;10245;51.344;6.620;2023-07-31T14:43:11;5.53;;;4.28;;
20170;SDS011;10245;51.344;6.620;2023-07-31T14:45:34;6.47;;;4.35;;
20170;SDS011;10245;51.344;6.620;2023-07-31T14:47:57;5.07;;;4.03;;
20170;SDS011;10245;51.344;6.620;2023-07-31T14:50:20;6.20;;;4.40;;
20170;SDS011;10245;51.344;6.620;2023-07-31T14:52:44;6.78;;;3.83;;
20170;SDS011;10245;51.344;6.620;2023-07-31T14:55:08;5.00;;;3.85;;
20170;SDS011;10245;51.344;6.620;2023-07-31T14:57:32;5.53;;;4.05;;
20170;SDS011;10245;51.344;6.620;2023-07-31T14:59:56;7.00;;;4.10;;
20170;SDS011;10245;51.344;6.620;2023-07-31T15:02:19;5.82;;;4.38;;
20170;SDS011;10245;51.344;6.620;2023-07-31T15:04:43;6.68;;;4.13;;
20170;SDS011;10245;51.344;6.620;2023-07-31T15:07:06;10.20;;;4.75;;
20170;SDS011;10245;51.344;6.620;2023-07-31T15:09:29;6.47;;;4.47;;
20170;SDS011;10245;51.344;6.620;2023-07-31T15:11:53;5.53;;;4.38;;
20170;SDS011;10245;51.344;6.620;2023-07-31T15:14:17;5.93;;;3.88;;
20170;SDS011;10245;51.344;6.620;2023-07-31T15:16:41;5.32;;;4.13;;
20170;SDS011;10245;51.344;6.620;2023-07-31T15:19:04;6.10;;;4.55;;
20170;SDS011;10245;51.344;6.620;2023-07-31T15:21:27;7.07;;;4.47;;
20170;SDS011;10245;51.344;6.620;2023-07-31T15:23:51;5.95;;;3.80;;
20170;SDS011;10245;51.344;6.620;2023-07-31T15:26:14;6.47;;;4.38;;
20170;SDS011;10245;51.344;6.620;2023-07-31T15:28:39;10.27;;;4.55;;
20170;SDS011;10245;51.344;6.620;2023-07-31T15:31:03;11.90;;;4.88;;
20170;SDS011;10245;51.344;6.620;2023-07-31T15:33:27;8.50;;;4.18;;
20170;SDS011;10245;51.344;6.620;2023-07-31T15:35:50;9.75;;;4.45;;
20170;SDS011;10245;51.344;6.620;2023-07-31T15:38:16;6.32;;;4.45;;
20170;SDS011;10245;51.344;6.620;2023-07-31T15:40:39;7.00;;;4.35;;
20170;SDS011;10245;51.344;6.620;2023-07-31T15:43:03;8.32;;;4.55;;
20170;SDS011;10245;51.344;6.620;2023-07-31T15:45:26;6.50;;;4.80;;
20170;SDS011;10245;51.344;6.620;2023-07-31T15:47:51;8.57;;;4.97;;
20170;SDS011;10245;51.344;6.620;2023-07-31T15:50:14;6.70;;;4.30;;
20170;SDS011;10245;51.344;6.620;2023-07-31T15:52:37;7.72;;;4.97;;
20170;SDS011;10245;51.344;6.620;2023-07-31T15:55:00;5.10;;;4.45;;
20170;SDS011;10245;51.344;6.620;2023-07-31T15:57:23;7.65;;;4.22;;
20170;SDS011;10245;51.344;6.620;2023-07-31T15:59:51;6.18;;;3.80;;